Adin, California
Current Conditions -  °F | °C
As of 1:55 PM on Friday 24 Oct 2014 (Local Time) from KAAT Reporting Station
Clear Clear  
Wind Chill: 71°   Ceiling: Unl
Heat Index: 71°   Visibility: 10mi
Dew Point: 34°   Wind: 21mph
Humidity: 26%   Direction: 200°SSW
Pressure: 29.95"   Gusts: 29mph
Location:  41.19°N, 120.95°W
Report Text: KAAT 242055Z AUTO 20018G25KT 10SM CLR 22/01 A2995 RMK AO2 SLP111 T02170011 58024
Loading
Personal Weather Stations






























Interactive Weather Map New forecast layout! Learn more

10-Day Weather Forecast

Advertisements
Track Severe Weather on mobile